Terminal Aerodrome Forecast
Issued by NWS

Current Version | Previous Version | Graphics & Text | Print | Product List | Glossary On
Versions: 1 2 3 4 5 6 7 8 9 10 11 12 13 14 15 16 17 18 19 20 21 22 23 24 25
090
FTUS41 KRLX 130331 AAA
TAFCKB
TAF AMD
KCKB 130331Z 1304/1324 26008KT 5SM -SN SCT015 BKN025 BKN080
      TEMPO 1304/1305 2SM -SHSN BKN015 OVC025
     FM130700 29014G21KT 4SM -SHSN BR BKN020
     FM131100 30013G20KT P6SM BKN020
     FM131600 30009KT P6SM BKN025=

USA.gov is the U.S. government's official web portal to all federal, state and local government web resources and services.